Time;durP1;ratioP1;P1;durP2;ratioP2;P2;SDS_P1;SDS_P2;PMS_P1;PMS_P2;Temp;Humidity;BMP_temperature;BMP_pressure;BME280_temperature;BME280_humidity;BME280_pressure;Samples;Min_cycle;Max_cycle;Signal;HPM_P1;HPM_P2
2021/06/13 00:00:12;;;;;;;12.13;5.40;;;14.40;99.90;;;;;;4991496;28;20208;-84
2021/06/13 00:02:42;;;;;;;9.40;5.38;;;14.30;99.90;;;;;;4992355;28;20186;-85
2021/06/13 00:05:11;;;;;;;15.82;6.75;;;14.20;99.90;;;;;;4992177;28;20204;-84
2021/06/13 00:07:38;;;;;;;14.60;5.53;;;14.20;99.90;;;;;;4991346;28;20230;-84
2021/06/13 00:10:07;;;;;;;10.07;5.57;;;14.30;99.90;;;;;;4971486;28;20266;-84
2021/06/13 00:12:35;;;;;;;15.32;6.22;;;14.20;99.90;;;;;;4988127;28;20226;-83
2021/06/13 00:15:02;;;;;;;11.90;6.82;;;14.00;99.90;;;;;;4987517;28;20244;-84
2021/06/13 00:17:29;;;;;;;11.07;5.78;;;14.00;99.90;;;;;;4989407;28;20193;-85
2021/06/13 00:19:56;;;;;;;10.90;6.07;;;14.10;99.90;;;;;;4983090;28;20217;-84
2021/06/13 00:22:22;;;;;;;15.40;7.18;;;14.20;99.90;;;;;;4982763;28;20308;-84
2021/06/13 00:24:49;;;;;;;8.32;5.82;;;14.10;99.90;;;;;;4964367;28;20210;-84
2021/06/13 00:27:16;;;;;;;13.10;6.72;;;13.90;99.90;;;;;;4964551;28;20224;-84
2021/06/13 00:29:44;;;;;;;10.57;5.68;;;13.90;99.90;;;;;;4981497;28;20230;-84
2021/06/13 00:32:11;;;;;;;17.90;6.47;;;13.80;99.90;;;;;;4982730;28;20225;-84
2021/06/13 00:34:38;;;;;;;12.23;7.00;;;13.90;99.90;;;;;;4966333;28;20217;-84
2021/06/13 00:37:05;;;;;;;17.27;6.88;;;13.60;99.90;;;;;;4981803;28;20210;-84
2021/06/13 00:39:31;;;;;;;17.95;6.65;;;13.60;99.90;;;;;;4965707;28;20233;-84
2021/06/13 00:42:01;;;;;;;12.35;6.72;;;13.70;99.90;;;;;;4964919;28;20225;-85
2021/06/13 00:44:28;;;;;;;12.48;5.20;;;13.70;99.90;;;;;;4965215;28;20198;-84
2021/06/13 00:46:57;;;;;;;17.25;7.93;;;13.60;99.90;;;;;;4983242;28;20209;-84
2021/06/13 00:49:24;;;;;;;12.27;6.40;;;13.50;99.90;;;;;;4965018;28;20673;-84
2021/06/13 00:51:52;;;;;;;13.57;7.68;;;13.30;99.90;;;;;;4981272;28;20218;-84
2021/06/13 00:54:20;;;;;;;10.85;5.70;;;13.10;99.90;;;;;;4968559;28;20210;-84
2021/06/13 00:56:47;;;;;;;12.55;5.97;;;13.00;99.90;;;;;;4966707;28;20209;-85
2021/06/13 00:59:15;;;;;;;12.85;6.07;;;13.00;99.90;;;;;;4967935;28;20201;-84
2021/06/13 01:01:43;;;;;;;9.25;6.15;;;13.10;99.90;;;;;;4967953;28;20237;-83
2021/06/13 01:04:14;;;;;;;11.20;6.50;;;13.10;99.90;;;;;;4967994;28;20205;-83
2021/06/13 01:06:48;;;;;;;12.60;6.20;;;13.00;99.90;;;;;;4986109;28;20244;-84
2021/06/13 01:09:17;;;;;;;9.23;5.80;;;12.80;99.90;;;;;;4967183;28;20461;-84
2021/06/13 01:11:53;;;;;;;9.63;5.32;;;12.90;99.90;;;;;;4951655;28;20225;-84
2021/06/13 01:14:28;;;;;;;9.25;5.82;;;12.70;99.90;;;;;;4951876;28;20272;-84
2021/06/13 01:17:04;;;;;;;14.68;6.20;;;12.70;99.90;;;;;;4951706;28;20205;-84
2021/06/13 01:19:51;;;;;;;15.02;6.32;;;12.60;99.90;;;;;;4967266;28;20210;-84
2021/06/13 01:22:38;;;;;;;14.18;5.97;;;12.80;99.90;;;;;;4984965;28;20214;-84
2021/06/13 01:25:16;;;;;;;13.35;7.70;;;12.60;99.90;;;;;;4966496;28;20689;-84
2021/06/13 01:28:02;;;;;;;13.75;6.32;;;12.50;99.90;;;;;;4984391;28;20382;-84
2021/06/13 01:30:32;;;;;;;10.90;6.43;;;12.60;99.90;;;;;;4966447;28;20251;-84
2021/06/13 01:33:06;;;;;;;10.43;6.55;;;12.60;99.90;;;;;;4967217;28;20225;-82
2021/06/13 01:35:34;;;;;;;13.85;6.63;;;12.90;99.90;;;;;;4983905;28;20197;-83
2021/06/13 01:38:02;;;;;;;15.07;6.35;;;12.80;99.90;;;;;;4962367;29;20199;-84
2021/06/13 01:40:32;;;;;;;14.38;6.10;;;12.70;99.90;;;;;;4946306;29;20681;-84
2021/06/13 01:43:01;;;;;;;9.70;5.85;;;12.70;99.90;;;;;;4965164;29;20199;-84
2021/06/13 01:45:34;;;;;;;11.20;5.55;;;12.60;99.90;;;;;;4948586;29;20306;-84
2021/06/13 01:48:02;;;;;;;10.57;6.30;;;12.40;99.90;;;;;;4948612;29;20230;-83
2021/06/13 01:50:30;;;;;;;6.38;5.40;;;12.40;99.90;;;;;;4949626;28;20228;-83
2021/06/13 01:53:02;;;;;;;12.85;5.85;;;12.30;99.90;;;;;;4984001;28;20232;-84
2021/06/13 01:55:30;;;;;;;22.33;7.13;;;12.40;99.90;;;;;;4967476;28;20202;-84
2021/06/13 01:57:59;;;;;;;12.73;7.10;;;12.30;99.90;;;;;;4984604;28;20198;-84
2021/06/13 02:00:42;;;;;;;11.75;6.57;;;12.20;99.90;;;;;;4966782;28;20229;-84
2021/06/13 02:03:17;;;;;;;17.17;6.93;;;12.20;99.90;;;;;;4985391;28;20297;-83
2021/06/13 02:05:53;;;;;;;11.43;6.32;;;12.10;99.90;;;;;;4966393;28;20197;-84
2021/06/13 02:08:22;;;;;;;10.18;6.28;;;12.20;99.90;;;;;;4966566;28;20233;-82
2021/06/13 02:10:56;;;;;;;14.05;6.82;;;12.00;99.90;;;;;;4960457;28;20221;-84
2021/06/13 02:13:24;;;;;;;12.77;6.18;;;11.90;99.90;;;;;;4987276;28;20198;-84
2021/06/13 02:15:58;;;;;;;14.60;6.47;;;11.90;99.90;;;;;;4969089;28;20202;-85
2021/06/13 02:18:28;;;;;;;13.07;5.80;;;11.90;99.90;;;;;;4968673;28;20254;-83
2021/06/13 02:21:00;;;;;;;20.42;7.50;;;11.70;99.90;;;;;;4934093;29;20234;-84
2021/06/13 02:23:30;;;;;;;13.57;6.68;;;11.80;99.90;;;;;;4950449;29;20191;-84
2021/06/13 02:26:00;;;;;;;9.10;6.13;;;11.80;99.90;;;;;;4933437;29;20195;-84
2021/06/13 02:28:29;;;;;;;18.77;8.00;;;11.90;99.90;;;;;;4966820;29;20226;-84
2021/06/13 02:31:00;;;;;;;8.98;6.22;;;12.00;99.90;;;;;;4956370;28;20264;-84
2021/06/13 02:33:28;;;;;;;14.38;6.55;;;11.90;99.90;;;;;;4969472;28;20198;-85
2021/06/13 02:36:01;;;;;;;13.98;7.47;;;12.00;99.90;;;;;;4967472;28;20290;-84
2021/06/13 02:38:28;;;;;;;11.07;6.55;;;12.00;99.90;;;;;;4956888;28;20253;-85
2021/06/13 02:40:58;;;;;;;13.98;6.80;;;12.10;99.90;;;;;;4966677;28;20249;-84
2021/06/13 02:43:25;;;;;;;13.30;7.88;;;12.00;99.90;;;;;;4958078;28;20673;-85
2021/06/13 02:45:51;;;;;;;12.95;6.57;;;12.00;99.90;;;;;;4965260;28;20677;-85
2021/06/13 02:48:21;;;;;;;14.15;6.03;;;11.90;99.90;;;;;;4960532;28;20225;-84
2021/06/13 02:50:52;;;;;;;10.63;7.03;;;11.70;99.90;;;;;;4963747;28;20233;-84
2021/06/13 02:53:24;;;;;;;13.73;6.45;;;11.80;99.90;;;;;;4980946;28;20213;-84
2021/06/13 02:55:55;;;;;;;9.48;6.20;;;11.80;99.90;;;;;;4962705;28;20236;-84
2021/06/13 02:58:37;;;;;;;13.07;6.22;;;11.80;99.90;;;;;;4964003;28;20285;-85
2021/06/13 03:01:06;;;;;;;13.93;6.80;;;11.60;99.90;;;;;;4973785;28;20608;-86
2021/06/13 03:03:36;;;;;;;11.95;7.07;;;11.50;99.90;;;;;;4963902;28;20261;-85
2021/06/13 03:06:09;;;;;;;12.73;5.75;;;11.70;99.90;;;;;;4963808;28;20613;-85
2021/06/13 03:08:37;;;;;;;14.38;7.22;;;11.70;99.90;;;;;;4962745;28;20236;-85
2021/06/13 03:11:06;;;;;;;12.38;7.10;;;11.50;99.90;;;;;;4963485;28;20285;-86
2021/06/13 03:13:33;;;;;;;12.68;7.55;;;11.60;99.90;;;;;;4961849;28;20227;-85
2021/06/13 03:16:03;;;;;;;14.50;7.60;;;11.60;99.90;;;;;;4943343;29;20203;-84
2021/06/13 03:18:30;;;;;;;11.00;6.35;;;11.70;99.90;;;;;;4945832;29;20222;-85
2021/06/13 03:21:00;;;;;;;12.68;6.95;;;11.50;99.90;;;;;;4962886;29;20229;-84
2021/06/13 03:23:31;;;;;;;12.90;6.55;;;11.50;99.90;;;;;;4945716;29;20214;-85
2021/06/13 03:26:01;;;;;;;16.73;7.30;;;11.70;99.90;;;;;;4962971;29;20583;-84
2021/06/13 03:28:29;;;;;;;12.13;6.78;;;11.80;99.90;;;;;;4945455;29;20211;-85
2021/06/13 03:30:56;;;;;;;16.77;6.85;;;11.80;99.90;;;;;;4930324;28;20226;-85
2021/06/13 03:33:25;;;;;;;15.98;6.90;;;11.60;99.90;;;;;;4966034;28;20261;-84
2021/06/13 03:35:55;;;;;;;10.05;6.25;;;11.70;99.90;;;;;;4948883;29;20654;-84
2021/06/13 03:38:24;;;;;;;12.45;7.45;;;11.70;99.90;;;;;;4963518;29;20210;-85
2021/06/13 03:40:52;;;;;;;14.18;7.13;;;11.70;99.90;;;;;;4946392;29;20227;-85
2021/06/13 03:43:20;;;;;;;16.40;7.97;;;11.80;99.90;;;;;;4964606;29;20269;-85
2021/06/13 03:45:48;;;;;;;10.95;6.20;;;11.60;99.90;;;;;;4963191;28;20636;-84
2021/06/13 03:48:17;;;;;;;13.55;7.38;;;11.60;99.90;;;;;;4963401;28;20269;-85
2021/06/13 03:50:45;;;;;;;14.52;6.78;;;11.60;99.90;;;;;;4962729;28;20214;-84
2021/06/13 03:53:13;;;;;;;14.23;7.15;;;11.60;99.90;;;;;;4982024;28;20210;-85
2021/06/13 03:55:42;;;;;;;16.15;6.88;;;11.60;99.90;;;;;;4991943;28;20205;-84
2021/06/13 03:58:11;;;;;;;10.57;6.57;;;11.70;99.90;;;;;;4977981;28;20206;-84
2021/06/13 04:00:44;;;;;;;15.52;7.40;;;11.80;99.90;;;;;;4996005;28;20205;-77
2021/06/13 04:03:13;;;;;;;17.70;8.60;;;11.80;99.90;;;;;;4978418;28;20213;-84
2021/06/13 04:05:42;;;;;;;18.45;7.47;;;11.90;99.90;;;;;;4979080;28;20221;-85
2021/06/13 04:08:12;;;;;;;13.10;7.18;;;11.80;99.90;;;;;;4996192;28;20233;-84
2021/06/13 04:10:42;;;;;;;12.77;7.28;;;12.00;99.90;;;;;;4978928;28;20222;-85
2021/06/13 04:13:11;;;;;;;10.80;7.22;;;11.80;99.90;;;;;;4961027;29;20182;-85
2021/06/13 04:15:39;;;;;;;8.93;6.30;;;11.80;99.90;;;;;;4960933;29;20207;-85
2021/06/13 04:18:08;;;;;;;12.82;6.75;;;11.80;99.90;;;;;;4945061;29;20204;-85
2021/06/13 04:20:36;;;;;;;12.75;6.43;;;11.80;99.90;;;;;;4976492;28;20218;-85
2021/06/13 04:23:04;;;;;;;15.13;8.23;;;11.90;99.90;;;;;;4976918;29;20709;-84
2021/06/13 04:25:32;;;;;;;16.33;7.25;;;11.90;99.90;;;;;;4950441;29;20570;-86
2021/06/13 04:28:01;;;;;;;13.43;7.72;;;12.00;99.90;;;;;;4947221;29;20269;-85
2021/06/13 04:30:28;;;;;;;12.75;8.23;;;11.90;99.90;;;;;;4949815;29;20217;-85
2021/06/13 04:32:57;;;;;;;12.30;7.18;;;11.80;99.90;;;;;;4977917;28;20703;-85
2021/06/13 04:35:24;;;;;;;14.88;6.95;;;11.80;99.90;;;;;;4986210;28;20205;-84
2021/06/13 04:37:52;;;;;;;7.30;6.03;;;11.80;99.90;;;;;;4986940;28;20622;-85
2021/06/13 04:40:19;;;;;;;10.38;7.45;;;11.90;99.90;;;;;;4985859;28;20210;-86
2021/06/13 04:42:46;;;;;;;16.95;7.45;;;12.00;99.90;;;;;;4985665;28;20202;-84
2021/06/13 04:45:15;;;;;;;13.80;7.55;;;11.80;99.90;;;;;;4986801;28;20209;-85
2021/06/13 04:47:42;;;;;;;18.75;8.10;;;12.00;99.90;;;;;;4988588;28;20229;-85
2021/06/13 04:50:11;;;;;;;16.35;7.53;;;11.90;99.90;;;;;;4986325;28;20229;-84
2021/06/13 04:52:39;;;;;;;15.50;7.68;;;11.90;99.90;;;;;;4987395;28;20266;-85
2021/06/13 04:55:15;;;;;;;11.32;7.90;;;11.90;99.90;;;;;;4985931;28;20229;-86
2021/06/13 04:57:54;;;;;;;12.63;7.32;;;11.90;99.90;;;;;;4986564;28;20276;-85
2021/06/13 05:00:23;;;;;;;10.63;7.22;;;12.10;99.90;;;;;;4985544;28;20232;-85
2021/06/13 05:02:50;;;;;;;12.35;7.07;;;12.20;99.90;;;;;;4987160;28;20202;-85
2021/06/13 05:05:17;;;;;;;12.88;5.88;;;12.20;99.90;;;;;;4987154;28;20210;-85
2021/06/13 05:07:45;;;;;;;15.73;7.35;;;12.20;99.90;;;;;;4985799;28;20599;-84
2021/06/13 05:10:13;;;;;;;14.55;7.78;;;12.30;99.90;;;;;;4984962;28;20266;-87
2021/06/13 05:12:50;;;;;;;9.30;6.82;;;12.50;99.90;;;;;;4985554;28;20232;-86
2021/06/13 05:15:19;;;;;;;12.68;7.57;;;12.70;99.90;;;;;;4985518;28;20206;-85
2021/06/13 05:17:47;;;;;;;11.23;6.85;;;12.80;99.90;;;;;;4967677;28;20206;-86
2021/06/13 05:20:16;;;;;;;16.20;7.28;;;13.00;99.90;;;;;;4986243;28;20222;-85
2021/06/13 05:22:51;;;;;;;10.73;7.00;;;13.00;99.90;;;;;;4969368;28;20198;-86
2021/06/13 05:25:18;;;;;;;19.23;7.40;;;13.20;99.90;;;;;;4983916;28;20205;-85
2021/06/13 05:27:45;;;;;;;14.02;6.53;;;13.30;99.90;;;;;;4986150;28;20206;-85
2021/06/13 05:30:14;;;;;;;12.23;6.82;;;13.50;99.90;;;;;;4973537;28;20210;-85
2021/06/13 05:32:41;;;;;;;23.63;7.90;;;13.70;99.90;;;;;;4948316;29;20210;-87
2021/06/13 05:35:12;;;;;;;13.55;7.57;;;13.80;99.90;;;;;;4965669;29;20199;-87
2021/06/13 05:37:39;;;;;;;10.45;6.85;;;13.80;99.90;;;;;;4964417;29;20206;-86
2021/06/13 05:40:09;;;;;;;14.32;7.22;;;13.90;99.90;;;;;;4965202;28;20235;-86
2021/06/13 05:42:36;;;;;;;14.73;7.97;;;13.80;99.90;;;;;;4958872;29;20713;-85
2021/06/13 05:45:04;;;;;;;13.55;6.50;;;13.90;99.90;;;;;;4958368;29;20202;-85
2021/06/13 05:47:31;;;;;;;11.20;5.85;;;14.00;99.90;;;;;;4951645;28;20198;-84
2021/06/13 05:49:58;;;;;;;11.70;6.75;;;14.00;99.90;;;;;;4977114;28;20218;-85
2021/06/13 05:52:26;;;;;;;15.45;6.28;;;14.10;99.90;;;;;;4961218;28;20636;-85
2021/06/13 05:54:57;;;;;;;13.93;7.18;;;14.00;99.90;;;;;;4977225;28;20252;-84
2021/06/13 05:57:31;;;;;;;14.98;6.60;;;14.20;99.90;;;;;;4987522;28;20202;-85
2021/06/13 05:59:58;;;;;;;13.23;7.60;;;14.40;99.90;;;;;;4988781;28;20214;-85
2021/06/13 06:02:25;;;;;;;11.07;7.30;;;14.20;99.90;;;;;;4987132;28;20229;-86
2021/06/13 06:04:53;;;;;;;13.50;7.55;;;14.00;99.90;;;;;;4987298;28;20206;-85
2021/06/13 06:07:20;;;;;;;11.13;5.50;;;14.10;99.90;;;;;;4971251;28;20201;-86
2021/06/13 06:09:49;;;;;;;10.43;6.90;;;14.20;99.90;;;;;;4984885;28;20226;-84
2021/06/13 06:12:16;;;;;;;13.85;6.18;;;14.40;99.90;;;;;;4969130;28;20276;-85
2021/06/13 06:14:44;;;;;;;12.50;5.45;;;14.50;99.90;;;;;;4988802;28;20198;-84
2021/06/13 06:17:12;;;;;;;12.27;6.13;;;14.10;99.90;;;;;;4983114;28;20206;-83
2021/06/13 06:19:39;;;;;;;10.13;5.72;;;13.90;99.90;;;;;;4978626;28;20206;-83
2021/06/13 06:22:07;;;;;;;9.55;6.50;;;14.10;99.90;;;;;;4978932;28;20230;-82
2021/06/13 06:24:34;;;;;;;15.63;6.60;;;14.10;99.90;;;;;;4961718;29;20302;-84
2021/06/13 06:27:03;;;;;;;17.13;7.47;;;14.40;99.90;;;;;;4968511;28;20589;-83
2021/06/13 06:29:30;;;;;;;15.35;8.52;;;14.40;99.90;;;;;;4977507;28;20217;-84
2021/06/13 06:31:58;;;;;;;14.13;6.63;;;14.60;99.90;;;;;;4978080;28;20736;-85
2021/06/13 06:34:26;;;;;;;13.15;6.43;;;14.80;99.90;;;;;;4962223;28;20197;-83
2021/06/13 06:36:53;;;;;;;24.95;13.85;;;14.90;99.90;;;;;;4962525;28;20273;-84
2021/06/13 06:39:20;;;;;;;9.52;5.75;;;15.00;99.90;;;;;;4983025;28;20198;-84
2021/06/13 06:41:49;;;;;;;13.85;5.82;;;15.20;99.90;;;;;;4949373;28;20218;-84
2021/06/13 06:44:17;;;;;;;7.75;4.93;;;15.20;99.90;;;;;;4983775;28;20198;-84
2021/06/13 06:46:45;;;;;;;15.77;6.07;;;15.20;99.90;;;;;;4934311;29;20235;-84
2021/06/13 06:49:12;;;;;;;12.20;5.72;;;15.30;99.90;;;;;;4946881;29;20269;-85
2021/06/13 06:51:39;;;;;;;15.02;5.78;;;15.40;99.90;;;;;;4948075;29;20649;-84
2021/06/13 06:54:06;;;;;;;8.35;5.57;;;15.40;99.90;;;;;;4948316;29;20218;-86
2021/06/13 06:56:33;;;;;;;10.40;5.05;;;15.40;99.90;;;;;;4949283;29;20206;-84
2021/06/13 06:59:00;;;;;;;16.05;5.40;;;15.40;99.90;;;;;;4965668;29;20202;-84
2021/06/13 07:01:28;;;;;;;7.75;4.88;;;15.50;99.90;;;;;;4967304;28;20254;-84
2021/06/13 07:03:58;;;;;;;7.82;4.35;;;15.60;99.90;;;;;;4964696;28;20230;-83
2021/06/13 07:06:25;;;;;;;7.78;4.45;;;15.50;99.90;;;;;;4943719;28;20226;-84
2021/06/13 07:08:52;;;;;;;9.68;5.90;;;15.40;99.90;;;;;;4950209;29;20286;-86
2021/06/13 07:11:22;;;;;;;8.02;4.38;;;15.60;99.90;;;;;;4964864;29;20230;-85
2021/06/13 07:13:49;;;;;;;12.20;5.82;;;15.80;99.90;;;;;;4964636;29;20700;-85
2021/06/13 07:16:16;;;;;;;12.70;5.53;;;15.90;99.90;;;;;;4965279;29;20207;-85
2021/06/13 07:18:48;;;;;;;8.75;5.18;;;15.80;99.90;;;;;;4964340;29;20266;-84
2021/06/13 07:21:16;;;;;;;8.07;5.18;;;15.90;99.90;;;;;;4950990;28;20672;-85
2021/06/13 07:23:43;;;;;;;10.52;5.22;;;15.80;99.90;;;;;;4968322;28;20282;-84
2021/06/13 07:26:10;;;;;;;12.45;5.32;;;15.80;99.90;;;;;;4966395;29;20214;-84
2021/06/13 07:28:37;;;;;;;14.07;5.53;;;15.80;99.90;;;;;;4953374;28;20216;-84
2021/06/13 07:31:05;;;;;;;10.85;5.25;;;15.80;99.90;;;;;;4984052;28;20222;-85
2021/06/13 07:33:32;;;;;;;11.02;5.78;;;16.10;99.90;;;;;;4982954;28;20249;-82
2021/06/13 07:36:01;;;;;;;8.65;4.28;;;16.20;99.90;;;;;;4984896;28;20205;-85
2021/06/13 07:38:29;;;;;;;11.70;5.43;;;16.40;99.90;;;;;;4953535;28;20210;-83
2021/06/13 07:40:56;;;;;;;7.72;4.85;;;16.50;99.90;;;;;;4951459;28;20222;-84
2021/06/13 07:43:23;;;;;;;11.02;4.60;;;16.30;99.90;;;;;;4943652;28;20689;-84
2021/06/13 07:45:52;;;;;;;10.73;4.95;;;16.20;99.90;;;;;;4964327;28;20618;-84
2021/06/13 07:48:19;;;;;;;8.40;4.68;;;16.40;99.90;;;;;;4985327;28;20585;-85
2021/06/13 07:50:46;;;;;;;10.48;4.55;;;16.60;99.90;;;;;;4985520;28;20252;-84
2021/06/13 07:53:15;;;;;;;7.80;4.57;;;16.50;99.90;;;;;;4957117;29;20226;-84
2021/06/13 07:55:42;;;;;;;9.10;4.90;;;16.70;99.90;;;;;;4966917;29;20228;-84
2021/06/13 07:58:11;;;;;;;8.98;3.45;;;16.90;99.90;;;;;;4965454;28;20222;-85
2021/06/13 08:00:39;;;;;;;8.40;3.40;;;16.70;99.90;;;;;;4966680;29;20685;-83
2021/06/13 08:03:07;;;;;;;6.75;3.47;;;16.40;99.90;;;;;;4948909;28;20222;-82
2021/06/13 08:05:35;;;;;;;8.82;3.63;;;16.60;99.90;;;;;;4971187;29;20408;-82
2021/06/13 08:08:05;;;;;;;6.57;3.78;;;16.70;99.90;;;;;;4955850;29;20261;-84
2021/06/13 08:10:35;;;;;;;9.00;3.55;;;17.00;99.90;;;;;;4955824;29;20230;-83
2021/06/13 08:13:03;;;;;;;3.95;3.17;;;17.30;99.90;;;;;;4943352;29;20210;-83
2021/06/13 08:15:31;;;;;;;7.85;3.40;;;17.30;99.90;;;;;;4958364;29;20283;-83
2021/06/13 08:17:59;;;;;;;10.52;4.43;;;17.40;99.90;;;;;;4975242;28;20206;-85
2021/06/13 08:20:27;;;;;;;7.32;4.18;;;17.50;99.90;;;;;;4977030;28;20256;-81
2021/06/13 08:22:54;;;;;;;7.70;3.65;;;17.50;99.90;;;;;;4982873;28;20201;-80
2021/06/13 08:25:21;;;;;;;8.00;4.05;;;17.30;99.90;;;;;;4980991;28;20229;-82
2021/06/13 08:27:50;;;;;;;6.18;3.85;;;17.10;99.90;;;;;;4983515;28;20217;-81
2021/06/13 08:30:18;;;;;;;8.50;3.58;;;17.10;99.90;;;;;;4986049;28;20732;-81
2021/06/13 08:32:46;;;;;;;6.80;3.28;;;17.40;99.90;;;;;;4984480;28;20493;-83
2021/06/13 08:35:15;;;;;;;7.38;4.15;;;17.80;99.90;;;;;;4984688;28;20201;-81
2021/06/13 08:37:42;;;;;;;7.72;3.90;;;17.60;99.90;;;;;;4983017;28;20212;-80
2021/06/13 08:40:13;;;;;;;7.18;3.67;;;17.40;99.90;;;;;;4968192;28;20688;-83
2021/06/13 08:42:42;;;;;;;7.15;3.50;;;17.50;99.90;;;;;;4967323;28;20206;-84
2021/06/13 08:45:14;;;;;;;6.32;3.20;;;17.70;99.90;;;;;;4983449;28;20202;-82
2021/06/13 08:48:09;;;;;;;7.25;3.70;;;18.10;99.90;;;;;;4948692;28;20202;-83
2021/06/13 08:50:46;;;;;;;7.72;2.97;;;18.30;99.90;;;;;;4961766;28;20229;-84
2021/06/13 08:53:15;;;;;;;7.10;3.80;;;18.20;99.90;;;;;;4960659;28;20218;-82
2021/06/13 08:55:42;;;;;;;8.48;3.17;;;17.50;99.90;;;;;;4978662;28;20198;-84
2021/06/13 08:58:13;;;;;;;7.07;4.20;;;17.20;99.90;;;;;;4981177;28;20206;-82
2021/06/13 09:00:42;;;;;;;7.40;3.70;;;17.20;99.90;;;;;;4982207;28;20284;-83
2021/06/13 09:03:09;;;;;;;6.68;3.55;;;17.60;99.90;;;;;;4984057;28;20210;-81
2021/06/13 09:05:37;;;;;;;4.40;3.40;;;17.90;99.90;;;;;;4979945;28;20202;-83
2021/06/13 09:08:09;;;;;;;6.22;3.40;;;18.40;99.90;;;;;;4975558;28;20194;-85
2021/06/13 09:10:37;;;;;;;8.80;3.03;;;18.60;99.90;;;;;;4965685;28;20230;-81
2021/06/13 09:13:13;;;;;;;9.02;3.53;;;18.00;99.90;;;;;;4999982;28;20691;-83
2021/06/13 09:15:45;;;;;;;5.80;3.58;;;17.60;99.90;;;;;;4985493;28;20197;-83
2021/06/13 09:18:28;;;;;;;5.28;3.13;;;17.50;99.90;;;;;;4986699;28;20202;-83
2021/06/13 09:20:55;;;;;;;10.80;4.95;;;17.30;99.90;;;;;;4970002;28;20229;-84
2021/06/13 09:23:22;;;;;;;4.80;3.83;;;17.50;99.90;;;;;;4970282;28;20202;-83
2021/06/13 09:25:58;;;;;;;7.93;4.53;;;17.80;99.90;;;;;;4971332;28;20204;-83
2021/06/13 09:28:26;;;;;;;7.45;3.60;;;18.10;99.90;;;;;;4987261;28;20205;-83
2021/06/13 09:30:55;;;;;;;6.45;3.83;;;18.40;99.90;;;;;;4983931;28;20289;-83
2021/06/13 09:33:25;;;;;;;8.00;3.80;;;18.30;99.90;;;;;;4987351;28;20202;-82
2021/06/13 09:35:53;;;;;;;11.35;4.35;;;18.30;99.90;;;;;;4987250;28;20202;-83
2021/06/13 09:38:24;;;;;;;7.82;4.35;;;18.30;99.90;;;;;;4988071;28;20206;-82
2021/06/13 09:40:56;;;;;;;7.78;3.95;;;18.50;99.90;;;;;;4992945;28;20301;-81
2021/06/13 09:43:26;;;;;;;4.75;2.97;;;18.50;99.90;;;;;;4997855;28;20225;-83
2021/06/13 09:45:58;;;;;;;5.55;3.65;;;19.00;99.90;;;;;;4986852;28;20699;-81
2021/06/13 09:48:26;;;;;;;6.72;4.75;;;19.10;99.90;;;;;;4969860;28;20202;-83
2021/06/13 09:50:55;;;;;;;8.82;3.10;;;19.30;99.90;;;;;;4983868;28;20249;-82
2021/06/13 09:53:24;;;;;;;5.57;3.92;;;18.80;99.90;;;;;;4976462;28;20275;-83
2021/06/13 09:56:09;;;;;;;7.38;3.85;;;18.50;99.90;;;;;;4965935;29;20198;-82
2021/06/13 09:58:47;;;;;;;6.18;3.35;;;18.80;99.90;;;;;;4948638;29;20223;-82
2021/06/13 10:01:16;;;;;;;9.10;5.20;;;18.80;99.90;;;;;;4999525;23;20277;-82
2021/06/13 10:03:46;;;;;;;7.38;4.13;;;18.90;99.90;;;;;;4964415;28;20257;-83
2021/06/13 10:06:15;;;;;;;5.95;3.47;;;19.30;99.90;;;;;;4955612;28;20323;-81
2021/06/13 10:08:42;;;;;;;7.10;4.38;;;19.50;99.90;;;;;;4946082;29;20215;-83
2021/06/13 10:11:10;;;;;;;4.35;3.75;;;19.40;99.90;;;;;;4945698;29;20231;-83
2021/06/13 10:13:52;;;;;;;4.68;3.00;;;19.60;99.90;;;;;;4978224;28;20198;-82
2021/06/13 10:16:32;;;;;;;4.68;3.65;;;19.30;99.90;;;;;;4988075;28;20202;-82
2021/06/13 10:19:02;;;;;;;5.82;2.63;;;18.80;99.90;;;;;;4988120;28;20222;-84
2021/06/13 10:21:34;;;;;;;17.33;8.68;;;18.70;99.90;;;;;;4987276;28;20249;-85
2021/06/13 10:24:03;;;;;;;6.57;3.47;;;19.00;99.90;;;;;;4987219;28;20179;-82
2021/06/13 10:26:30;;;;;;;8.00;5.03;;;19.20;99.90;;;;;;4959302;29;20200;-83
2021/06/13 10:28:59;;;;;;;6.97;4.15;;;19.30;99.90;;;;;;4952225;29;20228;-83
2021/06/13 10:31:28;;;;;;;8.90;3.28;;;19.50;99.90;;;;;;4963146;28;20234;-84
2021/06/13 10:33:56;;;;;;;7.10;4.60;;;19.40;99.90;;;;;;4974799;28;20681;-84
2021/06/13 10:36:23;;;;;;;8.57;5.20;;;19.70;99.90;;;;;;4969248;28;20616;-85
2021/06/13 10:38:51;;;;;;;9.60;4.30;;;19.80;99.90;;;;;;4968792;28;20203;-85
2021/06/13 10:41:18;;;;;;;9.57;3.38;;;19.80;99.90;;;;;;4971795;28;20230;-82
2021/06/13 10:43:45;;;;;;;8.43;3.80;;;19.70;99.90;;;;;;4972028;28;20666;-83
2021/06/13 10:46:15;;;;;;;11.77;5.75;;;19.60;99.90;;;;;;4970230;28;20732;-84
2021/06/13 10:48:49;;;;;;;8.20;3.55;;;19.70;99.90;;;;;;4965059;28;20206;-84
2021/06/13 10:51:38;;;;;;;6.75;3.58;;;19.80;99.90;;;;;;4973002;28;20249;-84
2021/06/13 10:54:25;;;;;;;5.53;3.40;;;19.90;99.90;;;;;;4964979;29;20187;-84
2021/06/13 10:56:54;;;;;;;10.52;5.40;;;20.30;99.90;;;;;;4966354;28;20219;-84
2021/06/13 10:59:21;;;;;;;4.35;3.10;;;20.40;99.90;;;;;;4966729;28;20226;-83
2021/06/13 11:02:08;;;;;;;6.70;3.95;;;20.50;99.90;;;;;;4968786;28;20264;-84
2021/06/13 11:04:45;;;;;;;6.88;3.15;;;20.80;99.90;;;;;;4965972;29;20231;-84
2021/06/13 11:07:13;;;;;;;6.72;3.40;;;21.00;99.90;;;;;;4968499;29;20717;-84
2021/06/13 11:10:13;;;;;;;7.18;4.18;;;20.50;99.90;;;;;;4977768;28;20246;-84
2021/06/13 11:12:42;;;;;;;4.38;3.22;;;20.40;99.90;;;;;;4976722;28;20250;-82
2021/06/13 11:15:10;;;;;;;7.22;3.60;;;20.30;99.90;;;;;;4976488;28;20179;-83
2021/06/13 11:17:55;;;;;;;11.30;6.68;;;20.30;99.90;;;;;;4975941;28;20189;-81
2021/06/13 11:20:48;;;;;;;9.40;5.38;;;20.40;99.90;;;;;;4973422;29;20212;-81
2021/06/13 11:23:31;;;;;;;8.77;3.60;;;20.80;99.90;;;;;;4960857;29;20214;-83
2021/06/13 11:26:00;;;;;;;5.00;2.60;;;20.60;99.90;;;;;;4961148;28;20247;-80
2021/06/13 11:28:30;;;;;;;8.32;5.28;;;20.40;99.90;;;;;;4958956;28;20195;-78
2021/06/13 11:31:01;;;;;;;10.32;8.02;;;20.50;99.90;;;;;;4963630;28;20230;-82
2021/06/13 11:33:39;;;;;;;6.10;4.55;;;21.00;99.90;;;;;;4963566;28;20203;-85
2021/06/13 11:36:29;;;;;;;7.65;3.63;;;21.60;99.90;;;;;;4960603;29;20237;-85
2021/06/13 11:39:18;;;;;;;6.75;4.07;;;21.50;99.90;;;;;;4959429;28;20291;-80
2021/06/13 11:41:48;;;;;;;4.88;3.70;;;21.40;99.90;;;;;;4967507;28;20596;-81
2021/06/13 11:44:35;;;;;;;8.88;3.15;;;21.00;99.90;;;;;;4964878;28;20277;-83
2021/06/13 11:47:21;;;;;;;6.68;3.67;;;20.70;99.90;;;;;;4974526;28;20210;-80
2021/06/13 11:49:50;;;;;;;8.30;4.43;;;20.70;99.90;;;;;;4943391;29;20219;-83
2021/06/13 11:52:19;;;;;;;6.68;3.85;;;20.90;99.90;;;;;;4955763;28;20235;-82
2021/06/13 11:54:49;;;;;;;4.13;2.95;;;21.30;99.90;;;;;;4948294;29;20211;-82
2021/06/13 11:57:31;;;;;;;5.95;3.53;;;21.30;99.90;;;;;;4944024;29;20215;-84
2021/06/13 12:00:12;;;;;;;6.90;3.60;;;21.60;99.90;;;;;;4944904;29;20215;-81
2021/06/13 12:02:40;;;;;;;7.63;3.60;;;21.90;99.90;;;;;;4943196;29;20318;-80
2021/06/13 12:05:09;;;;;;;6.30;4.22;;;22.10;99.90;;;;;;4959509;29;20227;-82
2021/06/13 12:07:40;;;;;;;8.77;5.18;;;22.50;99.90;;;;;;4959717;28;20206;-79
2021/06/13 12:10:20;;;;;;;4.70;3.55;;;22.40;99.90;;;;;;4959400;28;20377;-79
2021/06/13 12:12:47;;;;;;;14.57;3.88;;;22.00;99.90;;;;;;4961205;28;20297;-81
2021/06/13 12:15:28;;;;;;;14.02;7.75;;;21.80;99.90;;;;;;4963822;28;20206;-78
2021/06/13 12:17:55;;;;;;;12.68;6.20;;;22.20;99.90;;;;;;4959345;28;20222;-79
2021/06/13 12:20:22;;;;;;;5.63;4.05;;;22.20;99.90;;;;;;4958899;28;20637;-80
2021/06/13 12:22:53;;;;;;;3.38;2.85;;;22.10;99.90;;;;;;4962109;28;20246;-79
2021/06/13 12:28:07;;;;;;;6.53;3.28;;;21.80;99.90;;;;;;4958182;29;20684;-78
2021/06/13 12:30:36;;;;;;;3.05;2.50;;;21.50;99.90;;;;;;4958657;28;20282;-82
2021/06/13 12:33:06;;;;;;;9.95;6.32;;;21.70;99.90;;;;;;4957325;28;20219;-79
2021/06/13 12:35:36;;;;;;;9.05;6.90;;;22.00;99.90;;;;;;4958806;29;20273;-80
2021/06/13 12:38:06;;;;;;;6.53;4.20;;;22.20;99.90;;;;;;4960527;28;20199;-79
2021/06/13 12:40:35;;;;;;;6.28;3.47;;;22.70;99.90;;;;;;4962333;28;20202;-79
2021/06/13 12:43:02;;;;;;;7.30;4.25;;;23.50;99.90;;;;;;4961232;28;20218;-81
2021/06/13 12:45:30;;;;;;;6.38;4.00;;;23.30;99.90;;;;;;4956847;29;20203;-81
2021/06/13 12:47:59;;;;;;;6.50;3.25;;;22.70;99.90;;;;;;4956949;28;20210;-80
2021/06/13 12:50:29;;;;;;;5.65;3.35;;;22.60;99.90;;;;;;4963585;28;20270;-81
2021/06/13 12:52:58;;;;;;;5.80;3.92;;;22.90;99.90;;;;;;4964858;28;20496;-80
2021/06/13 12:55:32;;;;;;;7.43;3.50;;;23.30;99.90;;;;;;4964895;28;20205;-81
2021/06/13 12:58:00;;;;;;;7.72;4.28;;;23.80;99.90;;;;;;4965429;28;20294;-80